Vincent, Alabama
Current Conditions -  °F | °C
As of 5:55 AM on Wednesday 28 Jan 2015 (Local Time) from KSCD Reporting Station
Clear Clear  
Wind Chill: 29°   Ceiling: Unl
Heat Index: 29°   Visibility: 7mi
Dew Point: 29°   Wind: 0mph
Humidity: 100%   Direction: NA
Pressure: 30.25"   Gusts: NA
Location:  33.38°N, 86.41°W
Report Text: KSCD 281155Z AUTO 00000KT 7SM CLR M02/M02 A3025 RMK AO2 7//// T10171017 10027 21019
Loading
Personal Weather Stations






























Interactive Weather Map New forecast layout! Learn more

10-Day Weather Forecast

Advertisements
Track Severe Weather on mobile